Time,TemperatureF,DewpointF,PressureIn,WindDirection,WindDirectionDegrees,WindSpeedMPH,WindSpeedGustMPH,Humidity,HourlyPrecipIn,Conditions,Clouds,dailyrainin,SoftwareType,DateUTC
2013-04-28 00:07:00,52.3,51.8,30.21,SSW,202,0.0,-999.0,98,-99.99,,,0.00,Acu-Link.com,2013-04-28 04:07:00,
2013-04-28 00:22:00,52.0,51.4,30.20,SSW,202,0.0,-999.0,98,-99.99,,,0.00,Acu-Link.com,2013-04-28 04:22:00,
2013-04-28 00:37:00,51.8,51.3,30.20,SSW,202,0.0,-999.0,98,-99.99,,,0.00,Acu-Link.com,2013-04-28 04:37:00,
2013-04-28 00:53:00,51.8,51.3,30.20,SSW,202,0.0,-999.0,98,-99.99,,,0.00,Acu-Link.com,2013-04-28 04:53:00,
2013-04-28 01:08:00,51.6,51.1,30.19,SSW,202,0.0,-999.0,98,-99.99,,,0.00,Acu-Link.com,2013-04-28 05:08:00,
2013-04-28 01:23:00,52.0,51.4,30.20,SSW,202,0.0,-999.0,98,-99.99,,,0.00,Acu-Link.com,2013-04-28 05:23:00,
2013-04-28 01:38:00,51.8,51.3,30.19,SSW,202,0.0,-999.0,98,-99.99,,,0.00,Acu-Link.com,2013-04-28 05:38:00,
2013-04-28 01:53:00,52.0,51.4,30.19,SSW,202,0.0,-999.0,98,-99.99,,,0.00,Acu-Link.com,2013-04-28 05:53:00,
2013-04-28 02:09:00,52.0,51.4,30.18,SSW,202,0.0,-999.0,98,-99.99,,,0.00,Acu-Link.com,2013-04-28 06:09:00,
2013-04-28 02:24:00,52.0,51.4,30.17,SSW,202,0.0,-999.0,98,-99.99,,,0.00,Acu-Link.com,2013-04-28 06:24:00,
2013-04-28 02:39:00,52.0,51.4,30.17,SSW,202,0.0,-999.0,98,-99.99,,,0.00,Acu-Link.com,2013-04-28 06:39:00,
2013-04-28 02:54:00,52.0,51.4,30.16,SSW,202,0.0,-999.0,98,-99.99,,,0.00,Acu-Link.com,2013-04-28 06:54:00,
2013-04-28 03:09:00,52.0,51.4,30.16,SSW,202,1.6,-999.0,98,-99.99,,,0.00,Acu-Link.com,2013-04-28 07:09:00,
2013-04-28 03:25:00,52.0,51.4,30.15,SSW,202,0.0,-999.0,98,-99.99,,,0.00,Acu-Link.com,2013-04-28 07:25:00,
2013-04-28 03:40:00,52.0,51.4,30.15,SSW,202,0.0,-999.0,98,-99.99,,,0.00,Acu-Link.com,2013-04-28 07:40:00,
2013-04-28 03:55:00,52.0,51.4,30.15,SSW,202,0.0,-999.0,98,-99.99,,,0.00,Acu-Link.com,2013-04-28 07:55:00,
2013-04-28 04:10:00,52.0,51.4,30.14,SSW,202,0.0,-999.0,98,-99.99,,,0.00,Acu-Link.com,2013-04-28 08:10:00,
2013-04-28 04:25:00,52.0,51.4,30.14,SSW,202,0.0,-999.0,98,-99.99,,,0.00,Acu-Link.com,2013-04-28 08:25:00,
2013-04-28 04:41:00,52.0,51.4,30.14,SSW,202,0.0,-999.0,98,-99.99,,,0.00,Acu-Link.com,2013-04-28 08:41:00,
2013-04-28 04:56:00,52.0,51.4,30.14,SSW,202,0.0,-999.0,98,-99.99,,,0.01,Acu-Link.com,2013-04-28 08:56:00,
2013-04-28 05:11:00,52.0,51.4,30.14,SSW,202,2.7,-999.0,98,-99.99,,,0.02,Acu-Link.com,2013-04-28 09:11:00,
2013-04-28 05:26:00,52.0,51.4,30.15,SSW,202,0.0,-999.0,98,-99.99,,,0.04,Acu-Link.com,2013-04-28 09:26:00,
2013-04-28 05:41:00,52.0,51.4,30.15,SSW,202,0.0,-999.0,98,-99.99,,,0.05,Acu-Link.com,2013-04-28 09:41:00,
2013-04-28 05:57:00,52.0,51.4,30.15,SSW,202,0.0,-999.0,98,-99.99,,,0.05,Acu-Link.com,2013-04-28 09:57:00,
2013-04-28 06:12:00,52.0,51.4,30.14,SSW,202,0.0,-999.0,98,-99.99,,,0.08,Acu-Link.com,2013-04-28 10:12:00,
2013-04-28 06:27:00,52.0,51.4,30.14,SSW,202,1.6,-999.0,98,-99.99,,,0.08,Acu-Link.com,2013-04-28 10:27:00,
2013-04-28 06:42:00,52.0,51.4,30.15,SSW,202,2.2,-999.0,98,-99.99,,,0.09,Acu-Link.com,2013-04-28 10:42:00,
2013-04-28 06:57:00,52.2,51.6,30.16,SSW,202,1.6,-999.0,98,-99.99,,,0.09,Acu-Link.com,2013-04-28 10:57:00,
2013-04-28 07:13:00,52.3,51.8,30.15,SSW,202,1.1,-999.0,98,-99.99,,,0.11,Acu-Link.com,2013-04-28 11:13:00,
2013-04-28 07:28:00,52.3,51.8,30.15,SSW,202,2.7,-999.0,98,-99.99,,,0.11,Acu-Link.com,2013-04-28 11:28:00,
2013-04-28 07:43:00,52.3,51.8,30.16,SSW,202,1.1,-999.0,98,-99.99,,,0.11,Acu-Link.com,2013-04-28 11:43:00,
2013-04-28 07:58:00,52.5,52.0,30.16,SSW,202,1.1,-999.0,98,-99.99,,,0.11,Acu-Link.com,2013-04-28 11:58:00,
2013-04-28 08:14:00,52.5,52.0,30.17,SSW,202,0.0,-999.0,98,-99.99,,,0.11,Acu-Link.com,2013-04-28 12:14:00,
2013-04-28 08:29:00,52.5,52.0,30.17,SSW,202,0.0,-999.0,98,-99.99,,,0.12,Acu-Link.com,2013-04-28 12:29:00,
2013-04-28 08:44:00,52.5,52.0,30.17,SSW,202,0.0,-999.0,98,-99.99,,,0.14,Acu-Link.com,2013-04-28 12:44:00,
2013-04-28 08:59:00,53.1,52.5,30.18,SSW,202,0.0,-999.0,98,-99.99,,,0.15,Acu-Link.com,2013-04-28 12:59:00,
2013-04-28 09:14:00,53.4,52.9,30.18,SSW,202,2.2,-999.0,98,-99.99,,,0.18,Acu-Link.com,2013-04-28 13:14:00,
2013-04-28 09:30:00,53.4,52.9,30.18,SSW,202,1.1,-999.0,98,-99.99,,,0.19,Acu-Link.com,2013-04-28 13:30:00,
2013-04-28 09:45:00,53.6,53.0,30.19,SSW,202,0.0,-999.0,98,-99.99,,,0.20,Acu-Link.com,2013-04-28 13:45:00,
2013-04-28 10:00:00,54.0,53.4,30.19,SSW,202,0.0,-999.0,98,-99.99,,,0.24,Acu-Link.com,2013-04-28 14:00:00,
2013-04-28 10:15:00,54.9,54.3,30.18,SSW,202,2.2,-999.0,98,-99.99,,,0.26,Acu-Link.com,2013-04-28 14:15:00,
2013-04-28 10:30:00,55.2,54.7,30.17,SSW,202,2.2,-999.0,98,-99.99,,,0.28,Acu-Link.com,2013-04-28 14:30:00,
2013-04-28 10:46:00,54.9,54.3,30.18,SSW,202,1.1,-999.0,98,-99.99,,,0.30,Acu-Link.com,2013-04-28 14:46:00,
2013-04-28 11:01:00,55.0,54.5,30.18,SSW,202,0.0,-999.0,98,-99.99,,,0.32,Acu-Link.com,2013-04-28 15:01:00,
2013-04-28 11:16:00,55.6,55.0,30.18,SSW,202,1.1,-999.0,98,-99.99,,,0.33,Acu-Link.com,2013-04-28 15:16:00,
2013-04-28 11:32:00,55.9,55.4,30.18,SSW,202,0.0,-999.0,98,-99.99,,,0.34,Acu-Link.com,2013-04-28 15:32:00,
2013-04-28 11:47:00,56.1,55.6,30.18,SSW,202,1.6,-999.0,98,-99.99,,,0.34,Acu-Link.com,2013-04-28 15:47:00,
2013-04-28 12:02:00,56.1,55.6,30.17,SSW,202,2.2,-999.0,98,-99.99,,,0.38,Acu-Link.com,2013-04-28 16:02:00,
2013-04-28 12:17:00,56.1,55.6,30.16,SSW,202,2.2,-999.0,98,-99.99,,,0.39,Acu-Link.com,2013-04-28 16:17:00,
2013-04-28 12:32:00,56.7,55.8,30.16,SSW,202,1.1,-999.0,97,-99.99,,,0.40,Acu-Link.com,2013-04-28 16:32:00,
2013-04-28 12:47:00,56.7,56.1,30.16,SSW,202,1.6,-999.0,98,-99.99,,,0.43,Acu-Link.com,2013-04-28 16:47:00,
2013-04-28 13:03:00,56.1,55.6,30.14,SSW,202,3.8,-999.0,98,-99.99,,,0.48,Acu-Link.com,2013-04-28 17:03:00,
2013-04-28 13:18:00,57.6,57.0,30.13,North,0,3.8,-999.0,98,-99.99,,,0.50,Acu-Link.com,2013-04-28 17:18:00,
2013-04-28 13:33:00,57.0,56.5,30.13,NNW,337,1.6,-999.0,98,-99.99,,,0.50,Acu-Link.com,2013-04-28 17:33:00,
2013-04-28 13:48:00,57.4,56.8,30.14,NNW,337,1.6,-999.0,98,-99.99,,,0.50,Acu-Link.com,2013-04-28 17:48:00,
2013-04-28 14:03:00,57.2,56.6,30.13,NW,315,1.6,-999.0,98,-99.99,,,0.50,Acu-Link.com,2013-04-28 18:03:00,
2013-04-28 14:19:00,57.6,56.7,30.13,ESE,112,1.1,-999.0,97,-99.99,,,0.50,Acu-Link.com,2013-04-28 18:19:00,
2013-04-28 14:34:00,57.9,57.4,30.12,NNW,337,0.0,-999.0,98,-99.99,,,0.50,Acu-Link.com,2013-04-28 18:34:00,
2013-04-28 14:49:00,57.4,56.8,30.12,SSW,202,3.1,-999.0,98,-99.99,,,0.50,Acu-Link.com,2013-04-28 18:49:00,
2013-04-28 15:04:00,57.6,55.5,30.10,SW,225,3.1,-999.0,93,-99.99,,,0.50,Acu-Link.com,2013-04-28 19:04:00,
2013-04-28 15:20:00,57.4,55.7,30.09,SW,225,2.2,-999.0,94,-99.99,,,0.50,Acu-Link.com,2013-04-28 19:20:00,
2013-04-28 15:35:00,57.7,55.7,30.08,WSW,247,1.6,-999.0,93,-99.99,,,0.50,Acu-Link.com,2013-04-28 19:35:00,
2013-04-28 15:50:00,57.6,57.0,30.08,NNW,337,1.6,-999.0,98,-99.99,,,0.50,Acu-Link.com,2013-04-28 19:50:00,
2013-04-28 16:05:00,58.5,57.6,30.07,WSW,247,2.2,-999.0,97,-99.99,,,0.50,Acu-Link.com,2013-04-28 20:05:00,
2013-04-28 16:20:00,57.9,57.1,30.07,WNW,292,2.7,-999.0,97,-99.99,,,0.50,Acu-Link.com,2013-04-28 20:20:00,
2013-04-28 16:36:00,57.4,56.8,30.07,SW,225,1.6,-999.0,98,-99.99,,,0.50,Acu-Link.com,2013-04-28 20:36:00,
2013-04-28 16:51:00,56.7,56.1,30.07,NNW,337,4.3,-999.0,98,-99.99,,,0.50,Acu-Link.com,2013-04-28 20:51:00,
2013-04-28 17:06:00,56.5,55.9,30.05,West,270,2.2,-999.0,98,-99.99,,,0.52,Acu-Link.com,2013-04-28 21:06:00,
2013-04-28 17:21:00,56.3,55.7,30.05,North,0,1.6,-999.0,98,-99.99,,,0.53,Acu-Link.com,2013-04-28 21:21:00,
2013-04-28 17:36:00,56.1,55.6,30.03,NNW,337,2.7,-999.0,98,-99.99,,,0.54,Acu-Link.com,2013-04-28 21:36:00,
2013-04-28 17:52:00,56.8,56.3,30.02,NNE,22,2.7,-999.0,98,-99.99,,,0.56,Acu-Link.com,2013-04-28 21:52:00,
2013-04-28 18:07:00,57.4,56.8,29.99,North,0,1.6,-999.0,98,-99.99,,,0.56,Acu-Link.com,2013-04-28 22:07:00,
2013-04-28 18:22:00,57.2,54.9,29.97,NE,45,5.8,-999.0,92,-99.99,,,0.56,Acu-Link.com,2013-04-28 22:22:00,
2013-04-28 18:37:00,57.2,56.4,30.01,ESE,112,1.6,-999.0,97,-99.99,,,0.56,Acu-Link.com,2013-04-28 22:37:00,
2013-04-28 18:52:00,56.5,55.9,30.03,NNW,337,1.6,-999.0,98,-99.99,,,0.56,Acu-Link.com,2013-04-28 22:52:00,
2013-04-28 19:08:00,56.1,55.6,30.04,West,270,2.7,-999.0,98,-99.99,,,0.56,Acu-Link.com,2013-04-28 23:08:00,
2013-04-28 19:23:00,55.2,54.1,30.05,SSW,202,6.7,-999.0,96,-99.99,,,0.56,Acu-Link.com,2013-04-28 23:23:00,
2013-04-28 19:38:00,54.3,53.8,30.05,SSW,202,3.8,-999.0,98,-99.99,,,0.56,Acu-Link.com,2013-04-28 23:38:00,
2013-04-28 19:53:00,53.8,53.2,30.03,SW,225,5.8,-999.0,98,-99.99,,,0.56,Acu-Link.com,2013-04-28 23:53:00,
2013-04-28 20:09:00,54.0,53.4,30.04,SW,225,4.3,-999.0,98,-99.99,,,0.56,Acu-Link.com,2013-04-29 00:09:00,
2013-04-28 20:24:00,53.8,53.2,30.05,SW,225,1.1,-999.0,98,-99.99,,,0.56,Acu-Link.com,2013-04-29 00:24:00,
2013-04-28 20:39:00,53.6,53.0,30.05,SW,225,3.1,-999.0,98,-99.99,,,0.56,Acu-Link.com,2013-04-29 00:39:00,
2013-04-28 20:54:00,53.4,52.9,30.04,SW,225,2.7,-999.0,98,-99.99,,,0.56,Acu-Link.com,2013-04-29 00:54:00,
2013-04-28 21:09:00,53.4,52.9,30.04,SW,225,1.6,-999.0,98,-99.99,,,0.56,Acu-Link.com,2013-04-29 01:09:00,
2013-04-28 21:25:00,53.1,52.5,30.04,SW,225,1.6,-999.0,98,-99.99,,,0.56,Acu-Link.com,2013-04-29 01:25:00,
2013-04-28 21:40:00,53.1,52.5,30.04,SW,225,0.0,-999.0,98,-99.99,,,0.56,Acu-Link.com,2013-04-29 01:40:00,
2013-04-28 21:55:00,53.1,52.5,30.04,SW,225,3.1,-999.0,98,-99.99,,,0.56,Acu-Link.com,2013-04-29 01:55:00,
2013-04-28 22:10:00,52.9,52.3,30.03,SW,225,2.7,-999.0,98,-99.99,,,0.56,Acu-Link.com,2013-04-29 02:10:00,
2013-04-28 22:25:00,52.9,52.3,30.03,SW,225,2.2,-999.0,98,-99.99,,,0.56,Acu-Link.com,2013-04-29 02:25:00,
2013-04-28 22:41:00,52.5,52.0,30.05,NNW,337,4.3,-999.0,98,-99.99,,,0.56,Acu-Link.com,2013-04-29 02:41:00,
2013-04-28 22:56:00,52.5,52.0,30.05,NNW,337,4.7,-999.0,98,-99.99,,,0.56,Acu-Link.com,2013-04-29 02:56:00,
2013-04-28 23:11:00,52.5,52.0,30.05,NNE,22,0.0,-999.0,98,-99.99,,,0.56,Acu-Link.com,2013-04-29 03:11:00,
2013-04-28 23:26:00,52.3,51.8,30.05,SW,225,1.1,-999.0,98,-99.99,,,0.57,Acu-Link.com,2013-04-29 03:26:00,
2013-04-28 23:41:00,52.0,51.4,30.05,SW,225,1.6,-999.0,98,-99.99,,,0.57,Acu-Link.com,2013-04-29 03:41:00,
2013-04-28 23:57:00,51.6,51.1,30.05,NNW,337,0.0,-999.0,98,-99.99,,,0.58,Acu-Link.com,2013-04-29 03:57:00,